Accueil
METAR-TAF:

METAR-TAF

Aéroports :

Burgos, Espagne

Aéroport de Burgos

latitude: 42-22N, longitude: 003-38W, altitude: 894 m

Observation

Le bulletin a été fait il y a 35 minutes, à 00:00 UTC
Vent 6 kt de nord-est
Température -4°C
Humidité 93%
Pression 1004 hPa
Visibilité: 8000 m

METAR: LEBG 240000Z AUTO 04006KT 8000 NCD M04/M05 Q1004

Heure: 01:35 (00:35 UTC)

Prévision

Le bulletin a été fait il y a 7 heures et 35 minutes, à 17:00 UTC
Prévision valable du 23 à 18 UTC au 24 à 03 UTC
Vent 8 kt de est/nord-est
Visibilité 10 km ou plus
Quelques nuages à une hauteur de 1500 ft
Evoluant progressivement
du 24 à 01 UTC au 24 à 03 UTC
Vent 5 kt de direction variable

TAF: LEBG 231700Z 2318/2403 06008KT 9999 FEW015 BECMG 2401/2403 VRB05KT

Observations et prévisions météorologiques de plus de 4000 aéroports (messages METAR et TAF).

Les stations disponibles sont représentées par des disques jaunes et rouges sur la carte.

Passer la souris dessus pour voir le nom de la station.

Cliquer dessus pour voir les observations et prévisions météorologiques.

Pour changer de carte: cliquez sur les boutons verts avec une croix noire pour zoomer, sur le bouton vert avec un tiret pour effectuer un zoom arrière, ou sur les flèches vertes pour les cartes adjacentes.


METAR-TAF: